sensor_id;sensor_type;location;lat;lon;timestamp;temperature;humidity
25918;DHT22;13899;51.174;4.456;2023-06-22T00:02:13;24.20;99.90
25918;DHT22;13899;51.174;4.456;2023-06-22T00:04:39;23.80;99.90
25918;DHT22;13899;51.174;4.456;2023-06-22T00:07:05;23.80;99.90
25918;DHT22;13899;51.174;4.456;2023-06-22T00:09:31;24.10;99.90
25918;DHT22;13899;51.174;4.456;2023-06-22T00:11:57;23.80;99.90
25918;DHT22;13899;51.174;4.456;2023-06-22T00:14:22;23.70;99.90
25918;DHT22;13899;51.174;4.456;2023-06-22T00:16:48;23.80;99.90
25918;DHT22;13899;51.174;4.456;2023-06-22T00:19:15;23.90;99.90
25918;DHT22;13899;51.174;4.456;2023-06-22T00:21:41;24.00;99.90
25918;DHT22;13899;51.174;4.456;2023-06-22T00:24:07;23.50;99.90
25918;DHT22;13899;51.174;4.456;2023-06-22T00:26:33;23.90;99.90
25918;DHT22;13899;51.174;4.456;2023-06-22T00:28:58;23.60;99.90
25918;DHT22;13899;51.174;4.456;2023-06-22T00:31:24;23.50;99.90
25918;DHT22;13899;51.174;4.456;2023-06-22T00:33:50;23.30;99.90
25918;DHT22;13899;51.174;4.456;2023-06-22T00:36:16;23.20;99.90
25918;DHT22;13899;51.174;4.456;2023-06-22T00:38:43;23.30;99.90
25918;DHT22;13899;51.174;4.456;2023-06-22T00:41:08;23.50;99.90
25918;DHT22;13899;51.174;4.456;2023-06-22T00:43:34;23.50;99.90
25918;DHT22;13899;51.174;4.456;2023-06-22T00:45:59;23.30;99.90
25918;DHT22;13899;51.174;4.456;2023-06-22T00:48:25;23.00;99.90
25918;DHT22;13899;51.174;4.456;2023-06-22T00:50:51;23.00;99.90
25918;DHT22;13899;51.174;4.456;2023-06-22T00:53:19;23.20;99.90
25918;DHT22;13899;51.174;4.456;2023-06-22T00:55:45;23.30;99.90
25918;DHT22;13899;51.174;4.456;2023-06-22T00:58:13;23.30;99.90
25918;DHT22;13899;51.174;4.456;2023-06-22T01:00:40;23.30;99.90
25918;DHT22;13899;51.174;4.456;2023-06-22T01:03:06;23.10;99.90
25918;DHT22;13899;51.174;4.456;2023-06-22T01:05:36;22.70;99.90
25918;DHT22;13899;51.174;4.456;2023-06-22T01:10:47;23.00;99.90
25918;DHT22;13899;51.174;4.456;2023-06-22T01:14:00;22.80;99.90
25918;DHT22;13899;51.174;4.456;2023-06-22T01:16:03;22.70;99.90
25918;DHT22;13899;51.174;4.456;2023-06-22T01:18:31;22.60;99.90
25918;DHT22;13899;51.174;4.456;2023-06-22T01:21:00;22.70;99.90
25918;DHT22;13899;51.174;4.456;2023-06-22T01:23:54;22.70;99.90
25918;DHT22;13899;51.174;4.456;2023-06-22T01:29:01;23.00;99.90
25918;DHT22;13899;51.174;4.456;2023-06-22T01:31:29;22.80;99.90
25918;DHT22;13899;51.174;4.456;2023-06-22T01:33:59;22.60;99.90
25918;DHT22;13899;51.174;4.456;2023-06-22T01:36:26;22.80;99.90
25918;DHT22;13899;51.174;4.456;2023-06-22T01:38:53;22.90;99.90
25918;DHT22;13899;51.174;4.456;2023-06-22T01:41:20;22.80;99.90
25918;DHT22;13899;51.174;4.456;2023-06-22T01:43:47;22.90;99.90
25918;DHT22;13899;51.174;4.456;2023-06-22T01:46:14;23.00;99.90
25918;DHT22;13899;51.174;4.456;2023-06-22T01:48:40;22.80;99.90
25918;DHT22;13899;51.174;4.456;2023-06-22T01:51:06;23.00;99.90
25918;DHT22;13899;51.174;4.456;2023-06-22T01:53:31;22.60;99.90
25918;DHT22;13899;51.174;4.456;2023-06-22T01:55:57;22.40;99.90
25918;DHT22;13899;51.174;4.456;2023-06-22T01:58:28;22.50;99.90
25918;DHT22;13899;51.174;4.456;2023-06-22T02:01:11;22.30;99.90
25918;DHT22;13899;51.174;4.456;2023-06-22T02:03:41;22.30;99.90
25918;DHT22;13899;51.174;4.456;2023-06-22T02:06:13;22.40;99.90
25918;DHT22;13899;51.174;4.456;2023-06-22T02:08:41;22.30;99.90
25918;DHT22;13899;51.174;4.456;2023-06-22T02:11:11;22.50;99.90
25918;DHT22;13899;51.174;4.456;2023-06-22T02:13:38;22.80;99.90
25918;DHT22;13899;51.174;4.456;2023-06-22T02:16:10;22.80;99.90
25918;DHT22;13899;51.174;4.456;2023-06-22T02:18:36;22.60;99.90
25918;DHT22;13899;51.174;4.456;2023-06-22T02:21:02;22.30;99.90
25918;DHT22;13899;51.174;4.456;2023-06-22T02:23:28;22.40;99.90
25918;DHT22;13899;51.174;4.456;2023-06-22T02:25:54;22.40;99.90
25918;DHT22;13899;51.174;4.456;2023-06-22T02:28:19;22.30;99.90
25918;DHT22;13899;51.174;4.456;2023-06-22T02:30:45;22.50;99.90
25918;DHT22;13899;51.174;4.456;2023-06-22T02:33:10;22.60;99.90
25918;DHT22;13899;51.174;4.456;2023-06-22T02:35:36;22.70;99.90
25918;DHT22;13899;51.174;4.456;2023-06-22T02:38:03;22.10;99.90
25918;DHT22;13899;51.174;4.456;2023-06-22T02:40:29;22.30;99.90
25918;DHT22;13899;51.174;4.456;2023-06-22T02:42:55;22.30;99.90
25918;DHT22;13899;51.174;4.456;2023-06-22T02:45:23;22.10;99.90
25918;DHT22;13899;51.174;4.456;2023-06-22T02:47:49;22.10;99.90
25918;DHT22;13899;51.174;4.456;2023-06-22T02:50:15;21.90;99.90
25918;DHT22;13899;51.174;4.456;2023-06-22T02:52:41;22.10;99.90
25918;DHT22;13899;51.174;4.456;2023-06-22T02:55:07;21.90;99.90
25918;DHT22;13899;51.174;4.456;2023-06-22T02:57:33;21.90;99.90
25918;DHT22;13899;51.174;4.456;2023-06-22T02:59:59;22.00;99.90
25918;DHT22;13899;51.174;4.456;2023-06-22T03:02:25;22.00;99.90
25918;DHT22;13899;51.174;4.456;2023-06-22T03:04:52;22.20;99.90
25918;DHT22;13899;51.174;4.456;2023-06-22T03:07:19;22.00;99.90
25918;DHT22;13899;51.174;4.456;2023-06-22T03:09:45;22.10;99.90
25918;DHT22;13899;51.174;4.456;2023-06-22T03:12:11;21.80;99.90
25918;DHT22;13899;51.174;4.456;2023-06-22T03:14:37;21.70;99.90
25918;DHT22;13899;51.174;4.456;2023-06-22T03:17:04;21.90;99.90
25918;DHT22;13899;51.174;4.456;2023-06-22T03:19:30;21.90;99.90
25918;DHT22;13899;51.174;4.456;2023-06-22T03:21:59;21.80;99.90
25918;DHT22;13899;51.174;4.456;2023-06-22T03:24:24;21.90;99.90
25918;DHT22;13899;51.174;4.456;2023-06-22T03:26:50;21.90;99.90
25918;DHT22;13899;51.174;4.456;2023-06-22T03:29:16;21.70;99.90
25918;DHT22;13899;51.174;4.456;2023-06-22T03:31:41;21.70;99.90
25918;DHT22;13899;51.174;4.456;2023-06-22T03:34:07;21.50;99.90
25918;DHT22;13899;51.174;4.456;2023-06-22T03:36:33;21.40;99.90
25918;DHT22;13899;51.174;4.456;2023-06-22T03:38:58;21.80;99.90
25918;DHT22;13899;51.174;4.456;2023-06-22T03:41:24;21.80;99.90
25918;DHT22;13899;51.174;4.456;2023-06-22T03:43:50;21.80;99.90
25918;DHT22;13899;51.174;4.456;2023-06-22T03:46:16;21.90;99.90
25918;DHT22;13899;51.174;4.456;2023-06-22T03:48:42;21.90;99.90
25918;DHT22;13899;51.174;4.456;2023-06-22T03:51:07;21.90;99.90
25918;DHT22;13899;51.174;4.456;2023-06-22T03:53:33;21.70;99.90
25918;DHT22;13899;51.174;4.456;2023-06-22T03:55:58;21.70;99.90
25918;DHT22;13899;51.174;4.456;2023-06-22T03:58:24;21.80;99.90
25918;DHT22;13899;51.174;4.456;2023-06-22T04:00:51;21.80;99.90
25918;DHT22;13899;51.174;4.456;2023-06-22T04:03:18;21.90;99.90
25918;DHT22;13899;51.174;4.456;2023-06-22T04:05:44;22.00;99.90
25918;DHT22;13899;51.174;4.456;2023-06-22T04:08:10;22.10;99.90
25918;DHT22;13899;51.174;4.456;2023-06-22T04:10:36;22.20;99.90
25918;DHT22;13899;51.174;4.456;2023-06-22T04:13:01;22.20;99.90
25918;DHT22;13899;51.174;4.456;2023-06-22T04:15:27;22.10;99.90
25918;DHT22;13899;51.174;4.456;2023-06-22T04:17:54;22.30;99.90
25918;DHT22;13899;51.174;4.456;2023-06-22T04:20:20;22.10;99.90
25918;DHT22;13899;51.174;4.456;2023-06-22T04:22:46;21.90;99.90
25918;DHT22;13899;51.174;4.456;2023-06-22T04:25:11;21.70;99.90
25918;DHT22;13899;51.174;4.456;2023-06-22T04:27:37;21.80;99.90
25918;DHT22;13899;51.174;4.456;2023-06-22T04:30:06;21.80;99.90
25918;DHT22;13899;51.174;4.456;2023-06-22T04:32:32;21.70;99.90
25918;DHT22;13899;51.174;4.456;2023-06-22T04:34:58;22.00;99.90
25918;DHT22;13899;51.174;4.456;2023-06-22T04:37:25;21.80;99.90
25918;DHT22;13899;51.174;4.456;2023-06-22T04:39:51;21.90;99.90
25918;DHT22;13899;51.174;4.456;2023-06-22T04:42:18;22.00;99.90
25918;DHT22;13899;51.174;4.456;2023-06-22T04:44:43;22.20;99.90
25918;DHT22;13899;51.174;4.456;2023-06-22T04:47:09;22.10;99.90
25918;DHT22;13899;51.174;4.456;2023-06-22T04:49:36;22.00;99.90
25918;DHT22;13899;51.174;4.456;2023-06-22T04:52:04;22.10;99.90
25918;DHT22;13899;51.174;4.456;2023-06-22T04:54:30;22.10;99.90
25918;DHT22;13899;51.174;4.456;2023-06-22T04:57:01;22.00;99.90
25918;DHT22;13899;51.174;4.456;2023-06-22T04:59:28;22.20;99.90
25918;DHT22;13899;51.174;4.456;2023-06-22T05:01:56;22.40;99.90
25918;DHT22;13899;51.174;4.456;2023-06-22T05:04:22;22.30;99.90
25918;DHT22;13899;51.174;4.456;2023-06-22T05:06:52;22.40;99.90
25918;DHT22;13899;51.174;4.456;2023-06-22T05:09:18;22.40;99.90
25918;DHT22;13899;51.174;4.456;2023-06-22T05:11:44;22.50;99.90
25918;DHT22;13899;51.174;4.456;2023-06-22T05:14:10;22.60;99.90
25918;DHT22;13899;51.174;4.456;2023-06-22T05:16:36;22.70;99.90
25918;DHT22;13899;51.174;4.456;2023-06-22T05:19:02;22.80;99.90
25918;DHT22;13899;51.174;4.456;2023-06-22T05:21:30;22.80;99.90
25918;DHT22;13899;51.174;4.456;2023-06-22T05:23:55;22.80;99.90
25918;DHT22;13899;51.174;4.456;2023-06-22T05:26:25;22.80;99.90
25918;DHT22;13899;51.174;4.456;2023-06-22T05:28:51;22.70;99.90
25918;DHT22;13899;51.174;4.456;2023-06-22T05:31:17;23.00;99.90
25918;DHT22;13899;51.174;4.456;2023-06-22T05:33:45;23.10;99.90
25918;DHT22;13899;51.174;4.456;2023-06-22T05:36:11;23.10;99.90
25918;DHT22;13899;51.174;4.456;2023-06-22T05:38:38;23.20;99.90
25918;DHT22;13899;51.174;4.456;2023-06-22T05:41:04;23.20;99.90
25918;DHT22;13899;51.174;4.456;2023-06-22T05:43:30;23.20;99.90
25918;DHT22;13899;51.174;4.456;2023-06-22T05:45:56;23.30;99.90
25918;DHT22;13899;51.174;4.456;2023-06-22T05:48:22;23.10;99.90
25918;DHT22;13899;51.174;4.456;2023-06-22T05:50:47;23.30;99.90
25918;DHT22;13899;51.174;4.456;2023-06-22T05:53:13;23.30;99.90
25918;DHT22;13899;51.174;4.456;2023-06-22T05:55:39;23.30;99.90
25918;DHT22;13899;51.174;4.456;2023-06-22T05:58:05;23.70;99.90
25918;DHT22;13899;51.174;4.456;2023-06-22T06:00:30;23.70;99.90
25918;DHT22;13899;51.174;4.456;2023-06-22T06:02:56;23.70;99.90
25918;DHT22;13899;51.174;4.456;2023-06-22T06:05:22;23.70;99.90
25918;DHT22;13899;51.174;4.456;2023-06-22T06:07:49;23.70;99.90
25918;DHT22;13899;51.174;4.456;2023-06-22T06:10:14;23.90;99.90
25918;DHT22;13899;51.174;4.456;2023-06-22T06:12:40;23.80;99.90
25918;DHT22;13899;51.174;4.456;2023-06-22T06:15:06;23.90;99.90
25918;DHT22;13899;51.174;4.456;2023-06-22T06:17:32;23.80;99.90
25918;DHT22;13899;51.174;4.456;2023-06-22T06:19:59;24.00;99.90
25918;DHT22;13899;51.174;4.456;2023-06-22T06:22:25;24.10;99.90
25918;DHT22;13899;51.174;4.456;2023-06-22T06:24:50;24.00;99.90
25918;DHT22;13899;51.174;4.456;2023-06-22T06:27:16;23.80;99.90
25918;DHT22;13899;51.174;4.456;2023-06-22T06:29:44;23.90;99.90
25918;DHT22;13899;51.174;4.456;2023-06-22T06:32:14;23.90;99.90
25918;DHT22;13899;51.174;4.456;2023-06-22T06:34:39;23.70;99.90
25918;DHT22;13899;51.174;4.456;2023-06-22T06:37:06;23.60;99.90
25918;DHT22;13899;51.174;4.456;2023-06-22T06:39:31;23.60;99.90
25918;DHT22;13899;51.174;4.456;2023-06-22T06:41:57;23.70;99.90
25918;DHT22;13899;51.174;4.456;2023-06-22T06:44:22;23.70;99.90
25918;DHT22;13899;51.174;4.456;2023-06-22T06:46:48;23.70;99.90
25918;DHT22;13899;51.174;4.456;2023-06-22T06:49:14;23.70;99.90
25918;DHT22;13899;51.174;4.456;2023-06-22T06:51:39;23.70;99.90
25918;DHT22;13899;51.174;4.456;2023-06-22T06:54:05;23.90;99.90
25918;DHT22;13899;51.174;4.456;2023-06-22T06:56:31;23.80;99.90
25918;DHT22;13899;51.174;4.456;2023-06-22T06:58:58;24.00;99.90
25918;DHT22;13899;51.174;4.456;2023-06-22T07:01:24;24.20;99.90
25918;DHT22;13899;51.174;4.456;2023-06-22T07:03:50;24.30;99.90
25918;DHT22;13899;51.174;4.456;2023-06-22T07:06:16;24.40;99.90
25918;DHT22;13899;51.174;4.456;2023-06-22T07:08:42;24.50;99.90
25918;DHT22;13899;51.174;4.456;2023-06-22T07:11:08;24.50;99.90
25918;DHT22;13899;51.174;4.456;2023-06-22T07:13:33;24.60;99.90
25918;DHT22;13899;51.174;4.456;2023-06-22T07:15:59;24.60;99.90
25918;DHT22;13899;51.174;4.456;2023-06-22T07:18:25;24.60;99.90
25918;DHT22;13899;51.174;4.456;2023-06-22T07:20:52;24.60;99.90
25918;DHT22;13899;51.174;4.456;2023-06-22T07:23:17;24.50;99.90
25918;DHT22;13899;51.174;4.456;2023-06-22T07:25:43;24.50;99.90
25918;DHT22;13899;51.174;4.456;2023-06-22T07:28:09;24.50;99.90
25918;DHT22;13899;51.174;4.456;2023-06-22T07:30:34;24.60;99.90
25918;DHT22;13899;51.174;4.456;2023-06-22T07:33:01;24.60;99.90
25918;DHT22;13899;51.174;4.456;2023-06-22T07:35:29;24.30;99.90
25918;DHT22;13899;51.174;4.456;2023-06-22T07:37:54;24.20;99.90
25918;DHT22;13899;51.174;4.456;2023-06-22T07:40:20;24.10;99.90
25918;DHT22;13899;51.174;4.456;2023-06-22T07:42:46;24.00;99.90
25918;DHT22;13899;51.174;4.456;2023-06-22T07:45:13;24.10;99.90
25918;DHT22;13899;51.174;4.456;2023-06-22T07:47:39;23.80;99.90
25918;DHT22;13899;51.174;4.456;2023-06-22T07:50:05;24.00;99.90
25918;DHT22;13899;51.174;4.456;2023-06-22T07:52:31;24.30;99.90
25918;DHT22;13899;51.174;4.456;2023-06-22T07:54:57;24.30;99.90
25918;DHT22;13899;51.174;4.456;2023-06-22T07:57:23;24.40;99.90
25918;DHT22;13899;51.174;4.456;2023-06-22T07:59:48;24.50;99.90
25918;DHT22;13899;51.174;4.456;2023-06-22T08:02:14;24.40;99.90
25918;DHT22;13899;51.174;4.456;2023-06-22T08:04:40;24.20;99.90
25918;DHT22;13899;51.174;4.456;2023-06-22T08:07:07;24.20;99.90
25918;DHT22;13899;51.174;4.456;2023-06-22T08:09:33;24.50;99.90
25918;DHT22;13899;51.174;4.456;2023-06-22T08:11:59;24.70;99.90
25918;DHT22;13899;51.174;4.456;2023-06-22T08:14:26;24.70;99.90
25918;DHT22;13899;51.174;4.456;2023-06-22T08:16:52;24.70;99.90
25918;DHT22;13899;51.174;4.456;2023-06-22T08:19:18;24.50;99.90
25918;DHT22;13899;51.174;4.456;2023-06-22T08:21:44;24.40;99.90
25918;DHT22;13899;51.174;4.456;2023-06-22T08:24:09;24.20;99.90
25918;DHT22;13899;51.174;4.456;2023-06-22T08:26:35;24.50;99.90
25918;DHT22;13899;51.174;4.456;2023-06-22T08:29:03;24.50;99.90
25918;DHT22;13899;51.174;4.456;2023-06-22T08:31:29;24.40;99.90
25918;DHT22;13899;51.174;4.456;2023-06-22T08:33:55;24.30;99.90
25918;DHT22;13899;51.174;4.456;2023-06-22T08:36:21;24.30;99.90
25918;DHT22;13899;51.174;4.456;2023-06-22T08:38:47;24.30;99.90
25918;DHT22;13899;51.174;4.456;2023-06-22T08:41:16;24.50;99.90
25918;DHT22;13899;51.174;4.456;2023-06-22T08:43:43;24.80;99.90
25918;DHT22;13899;51.174;4.456;2023-06-22T08:46:09;25.00;99.90
25918;DHT22;13899;51.174;4.456;2023-06-22T08:48:35;24.70;99.90
25918;DHT22;13899;51.174;4.456;2023-06-22T08:51:00;24.70;99.90
25918;DHT22;13899;51.174;4.456;2023-06-22T08:53:26;24.90;99.90
25918;DHT22;13899;51.174;4.456;2023-06-22T08:55:51;25.00;99.90
25918;DHT22;13899;51.174;4.456;2023-06-22T08:58:17;25.00;99.90
25918;DHT22;13899;51.174;4.456;2023-06-22T09:00:43;25.00;99.90
25918;DHT22;13899;51.174;4.456;2023-06-22T09:03:09;24.90;99.90
25918;DHT22;13899;51.174;4.456;2023-06-22T09:05:34;24.90;99.90
25918;DHT22;13899;51.174;4.456;2023-06-22T09:08:00;25.00;99.90
25918;DHT22;13899;51.174;4.456;2023-06-22T09:10:26;24.90;99.90
25918;DHT22;13899;51.174;4.456;2023-06-22T09:12:52;24.80;99.90
25918;DHT22;13899;51.174;4.456;2023-06-22T09:15:17;25.00;99.90
25918;DHT22;13899;51.174;4.456;2023-06-22T09:17:43;24.90;99.90
25918;DHT22;13899;51.174;4.456;2023-06-22T09:20:10;24.40;99.90
25918;DHT22;13899;51.174;4.456;2023-06-22T09:22:36;24.60;99.90
25918;DHT22;13899;51.174;4.456;2023-06-22T09:25:02;24.70;99.90
25918;DHT22;13899;51.174;4.456;2023-06-22T09:27:29;24.50;99.90
25918;DHT22;13899;51.174;4.456;2023-06-22T09:29:54;24.60;99.90
25918;DHT22;13899;51.174;4.456;2023-06-22T09:32:20;24.70;99.90
25918;DHT22;13899;51.174;4.456;2023-06-22T09:34:45;24.80;99.90
25918;DHT22;13899;51.174;4.456;2023-06-22T09:37:12;24.40;99.90
25918;DHT22;13899;51.174;4.456;2023-06-22T09:39:37;24.40;99.90
25918;DHT22;13899;51.174;4.456;2023-06-22T09:42:03;24.10;99.90
25918;DHT22;13899;51.174;4.456;2023-06-22T09:44:30;24.40;99.90
25918;DHT22;13899;51.174;4.456;2023-06-22T09:46:57;24.50;99.90
25918;DHT22;13899;51.174;4.456;2023-06-22T09:49:23;24.60;99.90
25918;DHT22;13899;51.174;4.456;2023-06-22T09:51:48;24.70;99.90
25918;DHT22;13899;51.174;4.456;2023-06-22T09:54:16;24.50;99.90
25918;DHT22;13899;51.174;4.456;2023-06-22T09:56:42;24.50;99.90
25918;DHT22;13899;51.174;4.456;2023-06-22T09:59:07;24.70;99.90
25918;DHT22;13899;51.174;4.456;2023-06-22T10:01:33;24.80;99.90
25918;DHT22;13899;51.174;4.456;2023-06-22T10:03:58;25.00;99.90
25918;DHT22;13899;51.174;4.456;2023-06-22T10:06:24;25.10;99.90
25918;DHT22;13899;51.174;4.456;2023-06-22T10:08:51;25.30;99.90
25918;DHT22;13899;51.174;4.456;2023-06-22T10:11:17;25.50;99.90
25918;DHT22;13899;51.174;4.456;2023-06-22T10:13:43;25.00;99.90
25918;DHT22;13899;51.174;4.456;2023-06-22T10:16:08;25.30;99.90
25918;DHT22;13899;51.174;4.456;2023-06-22T10:18:34;25.40;99.90
25918;DHT22;13899;51.174;4.456;2023-06-22T10:20:59;24.80;99.90
25918;DHT22;13899;51.174;4.456;2023-06-22T10:23:25;25.00;99.90
25918;DHT22;13899;51.174;4.456;2023-06-22T10:25:51;25.10;99.90
25918;DHT22;13899;51.174;4.456;2023-06-22T10:28:16;25.30;99.90
25918;DHT22;13899;51.174;4.456;2023-06-22T10:30:42;24.70;99.90
25918;DHT22;13899;51.174;4.456;2023-06-22T10:33:09;24.60;99.90
25918;DHT22;13899;51.174;4.456;2023-06-22T10:35:36;24.80;99.90
25918;DHT22;13899;51.174;4.456;2023-06-22T10:38:03;24.80;99.90
25918;DHT22;13899;51.174;4.456;2023-06-22T10:40:30;24.90;99.90
25918;DHT22;13899;51.174;4.456;2023-06-22T10:42:55;24.90;99.90
25918;DHT22;13899;51.174;4.456;2023-06-22T10:45:21;24.90;99.90
25918;DHT22;13899;51.174;4.456;2023-06-22T10:47:47;24.20;99.90
25918;DHT22;13899;51.174;4.456;2023-06-22T10:50:13;24.10;99.90
25918;DHT22;13899;51.174;4.456;2023-06-22T10:52:39;24.20;99.90
25918;DHT22;13899;51.174;4.456;2023-06-22T10:55:05;23.90;99.90
25918;DHT22;13899;51.174;4.456;2023-06-22T10:57:31;24.00;99.90
25918;DHT22;13899;51.174;4.456;2023-06-22T10:59:56;24.50;99.90
25918;DHT22;13899;51.174;4.456;2023-06-22T11:02:23;24.30;99.90
25918;DHT22;13899;51.174;4.456;2023-06-22T11:04:48;24.30;99.90
25918;DHT22;13899;51.174;4.456;2023-06-22T11:07:15;24.40;99.90
25918;DHT22;13899;51.174;4.456;2023-06-22T11:09:42;24.50;99.90
25918;DHT22;13899;51.174;4.456;2023-06-22T11:12:08;24.60;99.90
25918;DHT22;13899;51.174;4.456;2023-06-22T11:14:33;24.50;99.90
25918;DHT22;13899;51.174;4.456;2023-06-22T11:16:59;24.50;99.90
25918;DHT22;13899;51.174;4.456;2023-06-22T11:19:25;23.70;99.90
25918;DHT22;13899;51.174;4.456;2023-06-22T11:21:50;23.60;99.90
25918;DHT22;13899;51.174;4.456;2023-06-22T11:24:16;23.40;99.90
25918;DHT22;13899;51.174;4.456;2023-06-22T11:26:42;23.40;99.90
25918;DHT22;13899;51.174;4.456;2023-06-22T11:29:08;23.50;99.90
25918;DHT22;13899;51.174;4.456;2023-06-22T11:31:34;23.60;99.90
25918;DHT22;13899;51.174;4.456;2023-06-22T11:34:00;23.60;99.90
25918;DHT22;13899;51.174;4.456;2023-06-22T11:36:26;23.80;99.90
25918;DHT22;13899;51.174;4.456;2023-06-22T11:38:52;23.70;99.90
25918;DHT22;13899;51.174;4.456;2023-06-22T11:41:18;23.80;99.90
25918;DHT22;13899;51.174;4.456;2023-06-22T11:43:44;23.80;99.90
25918;DHT22;13899;51.174;4.456;2023-06-22T11:46:10;23.60;99.90
25918;DHT22;13899;51.174;4.456;2023-06-22T11:48:36;23.50;99.90
25918;DHT22;13899;51.174;4.456;2023-06-22T11:51:02;23.60;99.90
25918;DHT22;13899;51.174;4.456;2023-06-22T11:53:28;23.60;99.90
25918;DHT22;13899;51.174;4.456;2023-06-22T11:55:54;23.10;99.90
25918;DHT22;13899;51.174;4.456;2023-06-22T11:58:20;23.00;99.90
25918;DHT22;13899;51.174;4.456;2023-06-22T12:00:46;23.00;99.90
25918;DHT22;13899;51.174;4.456;2023-06-22T12:03:12;23.10;99.90
25918;DHT22;13899;51.174;4.456;2023-06-22T12:05:38;23.30;99.90
25918;DHT22;13899;51.174;4.456;2023-06-22T12:08:04;23.50;99.90
25918;DHT22;13899;51.174;4.456;2023-06-22T12:10:30;23.40;99.90
25918;DHT22;13899;51.174;4.456;2023-06-22T12:12:56;23.10;99.90
25918;DHT22;13899;51.174;4.456;2023-06-22T12:15:23;22.90;99.90
25918;DHT22;13899;51.174;4.456;2023-06-22T12:17:48;22.50;99.90
25918;DHT22;13899;51.174;4.456;2023-06-22T12:20:14;22.50;99.90
25918;DHT22;13899;51.174;4.456;2023-06-22T12:22:41;22.30;99.90
25918;DHT22;13899;51.174;4.456;2023-06-22T12:25:07;22.20;99.90
25918;DHT22;13899;51.174;4.456;2023-06-22T12:27:33;22.30;99.90
25918;DHT22;13899;51.174;4.456;2023-06-22T12:29:59;22.30;99.90
25918;DHT22;13899;51.174;4.456;2023-06-22T12:32:25;22.10;99.90
25918;DHT22;13899;51.174;4.456;2023-06-22T12:34:51;22.20;99.90
25918;DHT22;13899;51.174;4.456;2023-06-22T12:37:16;22.20;99.90
25918;DHT22;13899;51.174;4.456;2023-06-22T12:39:43;22.20;99.90
25918;DHT22;13899;51.174;4.456;2023-06-22T12:42:08;22.10;99.90
25918;DHT22;13899;51.174;4.456;2023-06-22T12:44:35;22.20;99.90
25918;DHT22;13899;51.174;4.456;2023-06-22T12:47:01;21.90;99.90
25918;DHT22;13899;51.174;4.456;2023-06-22T12:49:26;22.10;99.90
25918;DHT22;13899;51.174;4.456;2023-06-22T12:51:52;22.30;99.90
25918;DHT22;13899;51.174;4.456;2023-06-22T12:54:17;22.40;99.90
25918;DHT22;13899;51.174;4.456;2023-06-22T12:56:43;22.60;99.90
25918;DHT22;13899;51.174;4.456;2023-06-22T12:59:10;22.80;99.90
25918;DHT22;13899;51.174;4.456;2023-06-22T13:01:36;22.80;99.90
25918;DHT22;13899;51.174;4.456;2023-06-22T13:04:02;22.80;99.90
25918;DHT22;13899;51.174;4.456;2023-06-22T13:06:28;22.50;99.90
25918;DHT22;13899;51.174;4.456;2023-06-22T13:08:54;22.50;99.90
25918;DHT22;13899;51.174;4.456;2023-06-22T13:11:20;22.50;99.90
25918;DHT22;13899;51.174;4.456;2023-06-22T13:13:46;22.60;99.90
25918;DHT22;13899;51.174;4.456;2023-06-22T13:16:12;22.50;99.90
25918;DHT22;13899;51.174;4.456;2023-06-22T13:18:38;22.60;99.90
25918;DHT22;13899;51.174;4.456;2023-06-22T13:21:04;22.50;99.90
25918;DHT22;13899;51.174;4.456;2023-06-22T13:23:29;22.50;99.90
25918;DHT22;13899;51.174;4.456;2023-06-22T13:25:55;22.60;99.90
25918;DHT22;13899;51.174;4.456;2023-06-22T13:28:20;22.60;99.90
25918;DHT22;13899;51.174;4.456;2023-06-22T13:30:47;22.60;99.90
25918;DHT22;13899;51.174;4.456;2023-06-22T13:33:15;22.60;99.90
25918;DHT22;13899;51.174;4.456;2023-06-22T13:35:42;22.60;99.90
25918;DHT22;13899;51.174;4.456;2023-06-22T13:38:10;22.50;99.90
25918;DHT22;13899;51.174;4.456;2023-06-22T13:40:36;22.20;99.90
25918;DHT22;13899;51.174;4.456;2023-06-22T13:43:04;22.10;99.90
25918;DHT22;13899;51.174;4.456;2023-06-22T13:45:29;22.00;99.90
25918;DHT22;13899;51.174;4.456;2023-06-22T13:47:55;22.10;99.90
25918;DHT22;13899;51.174;4.456;2023-06-22T13:50:20;22.30;99.90
25918;DHT22;13899;51.174;4.456;2023-06-22T13:52:46;22.30;99.90
25918;DHT22;13899;51.174;4.456;2023-06-22T13:55:12;22.30;99.90
25918;DHT22;13899;51.174;4.456;2023-06-22T13:57:39;22.20;99.90
25918;DHT22;13899;51.174;4.456;2023-06-22T14:00:05;22.10;99.90
25918;DHT22;13899;51.174;4.456;2023-06-22T14:02:31;21.90;99.90
25918;DHT22;13899;51.174;4.456;2023-06-22T14:04:57;21.90;99.90
25918;DHT22;13899;51.174;4.456;2023-06-22T14:07:22;21.90;99.90
25918;DHT22;13899;51.174;4.456;2023-06-22T14:09:49;22.00;99.90
25918;DHT22;13899;51.174;4.456;2023-06-22T14:12:15;22.00;99.90
25918;DHT22;13899;51.174;4.456;2023-06-22T14:14:43;21.90;99.90
25918;DHT22;13899;51.174;4.456;2023-06-22T14:17:09;21.90;99.90
25918;DHT22;13899;51.174;4.456;2023-06-22T14:19:35;22.10;99.90
25918;DHT22;13899;51.174;4.456;2023-06-22T14:22:01;21.90;99.90
25918;DHT22;13899;51.174;4.456;2023-06-22T14:24:27;22.00;99.90
25918;DHT22;13899;51.174;4.456;2023-06-22T14:26:53;22.10;99.90
25918;DHT22;13899;51.174;4.456;2023-06-22T14:29:19;22.00;99.90
25918;DHT22;13899;51.174;4.456;2023-06-22T14:31:48;21.90;99.90
25918;DHT22;13899;51.174;4.456;2023-06-22T14:34:14;21.90;99.90
25918;DHT22;13899;51.174;4.456;2023-06-22T14:36:40;22.00;99.90
25918;DHT22;13899;51.174;4.456;2023-06-22T14:39:06;22.00;99.90
25918;DHT22;13899;51.174;4.456;2023-06-22T14:41:32;21.90;99.90
25918;DHT22;13899;51.174;4.456;2023-06-22T14:43:57;22.10;99.90
25918;DHT22;13899;51.174;4.456;2023-06-22T14:46:23;22.30;99.90
25918;DHT22;13899;51.174;4.456;2023-06-22T14:48:49;22.20;99.90
25918;DHT22;13899;51.174;4.456;2023-06-22T14:51:15;22.30;99.90
25918;DHT22;13899;51.174;4.456;2023-06-22T14:53:41;22.40;99.90
25918;DHT22;13899;51.174;4.456;2023-06-22T14:56:07;22.50;99.90
25918;DHT22;13899;51.174;4.456;2023-06-22T14:58:33;22.50;99.90
25918;DHT22;13899;51.174;4.456;2023-06-22T15:01:00;22.50;99.90
25918;DHT22;13899;51.174;4.456;2023-06-22T15:03:26;22.30;99.90
25918;DHT22;13899;51.174;4.456;2023-06-22T15:05:54;22.20;99.90
25918;DHT22;13899;51.174;4.456;2023-06-22T15:08:20;22.20;99.90
25918;DHT22;13899;51.174;4.456;2023-06-22T15:10:46;22.40;99.90
25918;DHT22;13899;51.174;4.456;2023-06-22T15:13:12;22.70;99.90
25918;DHT22;13899;51.174;4.456;2023-06-22T15:15:37;22.90;99.90
25918;DHT22;13899;51.174;4.456;2023-06-22T15:18:03;22.80;99.90
25918;DHT22;13899;51.174;4.456;2023-06-22T15:20:29;22.60;99.90
25918;DHT22;13899;51.174;4.456;2023-06-22T15:22:56;22.30;99.90
25918;DHT22;13899;51.174;4.456;2023-06-22T15:25:21;22.40;99.90
25918;DHT22;13899;51.174;4.456;2023-06-22T15:27:47;22.40;99.90
25918;DHT22;13899;51.174;4.456;2023-06-22T15:30:13;22.70;99.90